sensor_id;sensor_type;location;lat;lon;timestamp;temperature;humidity
23385;DHT22;11865;45.394;10.978;2023-05-09T00:02:16;17.00;99.90
23385;DHT22;11865;45.394;10.978;2023-05-09T00:04:44;17.00;99.90
23385;DHT22;11865;45.394;10.978;2023-05-09T00:07:11;17.00;99.90
23385;DHT22;11865;45.394;10.978;2023-05-09T00:09:39;17.00;99.90
23385;DHT22;11865;45.394;10.978;2023-05-09T00:12:06;17.00;99.90
23385;DHT22;11865;45.394;10.978;2023-05-09T00:14:34;17.00;99.90
23385;DHT22;11865;45.394;10.978;2023-05-09T00:17:01;17.00;99.90
23385;DHT22;11865;45.394;10.978;2023-05-09T00:19:30;17.00;99.90
23385;DHT22;11865;45.394;10.978;2023-05-09T00:21:57;17.00;99.90
23385;DHT22;11865;45.394;10.978;2023-05-09T00:24:25;17.00;99.90
23385;DHT22;11865;45.394;10.978;2023-05-09T00:26:52;17.00;99.90
23385;DHT22;11865;45.394;10.978;2023-05-09T00:29:19;17.00;99.90
23385;DHT22;11865;45.394;10.978;2023-05-09T00:31:47;17.10;99.90
23385;DHT22;11865;45.394;10.978;2023-05-09T00:34:14;17.10;99.90
23385;DHT22;11865;45.394;10.978;2023-05-09T00:36:42;17.00;99.90
23385;DHT22;11865;45.394;10.978;2023-05-09T00:39:09;17.10;99.90
23385;DHT22;11865;45.394;10.978;2023-05-09T00:41:37;17.10;99.90
23385;DHT22;11865;45.394;10.978;2023-05-09T00:44:04;17.10;99.90
23385;DHT22;11865;45.394;10.978;2023-05-09T00:46:32;17.10;99.90
23385;DHT22;11865;45.394;10.978;2023-05-09T00:48:59;17.10;99.90
23385;DHT22;11865;45.394;10.978;2023-05-09T00:51:27;17.10;99.90
23385;DHT22;11865;45.394;10.978;2023-05-09T00:53:55;17.20;99.90
23385;DHT22;11865;45.394;10.978;2023-05-09T00:56:23;17.10;99.90
23385;DHT22;11865;45.394;10.978;2023-05-09T00:58:51;17.20;99.90
23385;DHT22;11865;45.394;10.978;2023-05-09T01:01:18;17.10;99.90
23385;DHT22;11865;45.394;10.978;2023-05-09T01:03:46;17.10;99.90
23385;DHT22;11865;45.394;10.978;2023-05-09T01:07:11;17.10;99.90
23385;DHT22;11865;45.394;10.978;2023-05-09T01:12:34;17.10;99.90
23385;DHT22;11865;45.394;10.978;2023-05-09T01:17:44;17.10;99.90
23385;DHT22;11865;45.394;10.978;2023-05-09T01:23:33;17.20;99.90
23385;DHT22;11865;45.394;10.978;2023-05-09T01:31:27;17.20;99.90
23385;DHT22;11865;45.394;10.978;2023-05-09T01:33:57;17.10;99.90
23385;DHT22;11865;45.394;10.978;2023-05-09T01:36:29;17.10;99.90
23385;DHT22;11865;45.394;10.978;2023-05-09T01:39:00;17.10;99.90
23385;DHT22;11865;45.394;10.978;2023-05-09T01:41:30;17.10;99.90
23385;DHT22;11865;45.394;10.978;2023-05-09T01:44:03;17.10;99.90
23385;DHT22;11865;45.394;10.978;2023-05-09T01:46:33;17.10;99.90
23385;DHT22;11865;45.394;10.978;2023-05-09T01:49:02;17.10;99.90
23385;DHT22;11865;45.394;10.978;2023-05-09T01:51:31;17.10;99.90
23385;DHT22;11865;45.394;10.978;2023-05-09T01:54:00;17.10;99.90
23385;DHT22;11865;45.394;10.978;2023-05-09T01:56:29;17.10;99.90
23385;DHT22;11865;45.394;10.978;2023-05-09T01:58:59;17.10;99.90
23385;DHT22;11865;45.394;10.978;2023-05-09T02:01:29;17.10;99.90
23385;DHT22;11865;45.394;10.978;2023-05-09T02:03:57;17.10;99.90
23385;DHT22;11865;45.394;10.978;2023-05-09T02:06:25;17.10;99.90
23385;DHT22;11865;45.394;10.978;2023-05-09T02:08:57;17.10;99.90
23385;DHT22;11865;45.394;10.978;2023-05-09T02:11:25;17.10;99.90
23385;DHT22;11865;45.394;10.978;2023-05-09T02:13:52;17.10;99.90
23385;DHT22;11865;45.394;10.978;2023-05-09T02:16:20;17.20;99.90
23385;DHT22;11865;45.394;10.978;2023-05-09T02:18:47;17.10;99.90
23385;DHT22;11865;45.394;10.978;2023-05-09T02:21:15;17.10;99.90
23385;DHT22;11865;45.394;10.978;2023-05-09T02:23:43;17.10;99.90
23385;DHT22;11865;45.394;10.978;2023-05-09T02:26:11;17.10;99.90
23385;DHT22;11865;45.394;10.978;2023-05-09T02:28:40;17.20;99.90
23385;DHT22;11865;45.394;10.978;2023-05-09T02:31:11;17.20;99.90
23385;DHT22;11865;45.394;10.978;2023-05-09T02:33:40;17.10;99.90
23385;DHT22;11865;45.394;10.978;2023-05-09T02:36:09;17.20;99.90
23385;DHT22;11865;45.394;10.978;2023-05-09T02:38:39;17.20;99.90
23385;DHT22;11865;45.394;10.978;2023-05-09T02:41:14;17.10;99.90
23385;DHT22;11865;45.394;10.978;2023-05-09T02:43:42;17.20;99.90
23385;DHT22;11865;45.394;10.978;2023-05-09T02:46:10;17.20;99.90
23385;DHT22;11865;45.394;10.978;2023-05-09T02:48:37;17.20;99.90
23385;DHT22;11865;45.394;10.978;2023-05-09T02:51:04;17.20;99.90
23385;DHT22;11865;45.394;10.978;2023-05-09T02:53:32;17.10;99.90
23385;DHT22;11865;45.394;10.978;2023-05-09T02:55:59;17.10;99.90
23385;DHT22;11865;45.394;10.978;2023-05-09T02:58:27;17.10;99.90
23385;DHT22;11865;45.394;10.978;2023-05-09T03:00:54;17.00;99.90
23385;DHT22;11865;45.394;10.978;2023-05-09T03:03:21;17.10;99.90
23385;DHT22;11865;45.394;10.978;2023-05-09T03:05:50;17.00;99.90
23385;DHT22;11865;45.394;10.978;2023-05-09T03:08:17;17.00;99.90
23385;DHT22;11865;45.394;10.978;2023-05-09T03:10:45;17.00;99.90
23385;DHT22;11865;45.394;10.978;2023-05-09T03:13:14;17.00;99.90
23385;DHT22;11865;45.394;10.978;2023-05-09T03:15:41;17.00;99.90
23385;DHT22;11865;45.394;10.978;2023-05-09T03:18:11;17.00;99.90
23385;DHT22;11865;45.394;10.978;2023-05-09T03:20:39;16.90;99.90
23385;DHT22;11865;45.394;10.978;2023-05-09T03:23:07;16.90;99.90
23385;DHT22;11865;45.394;10.978;2023-05-09T03:25:34;16.90;99.90
23385;DHT22;11865;45.394;10.978;2023-05-09T03:28:02;16.90;99.90
23385;DHT22;11865;45.394;10.978;2023-05-09T03:30:29;16.90;99.90
23385;DHT22;11865;45.394;10.978;2023-05-09T03:32:57;16.80;99.90
23385;DHT22;11865;45.394;10.978;2023-05-09T03:35:25;16.80;99.90
23385;DHT22;11865;45.394;10.978;2023-05-09T03:37:54;16.80;99.90
23385;DHT22;11865;45.394;10.978;2023-05-09T03:40:21;16.90;99.90
23385;DHT22;11865;45.394;10.978;2023-05-09T03:42:56;16.90;99.90
23385;DHT22;11865;45.394;10.978;2023-05-09T03:45:24;16.90;99.90
23385;DHT22;11865;45.394;10.978;2023-05-09T03:47:51;16.90;99.90
23385;DHT22;11865;45.394;10.978;2023-05-09T03:50:19;16.80;99.90
23385;DHT22;11865;45.394;10.978;2023-05-09T03:52:46;16.80;99.90
23385;DHT22;11865;45.394;10.978;2023-05-09T03:55:16;16.80;99.90
23385;DHT22;11865;45.394;10.978;2023-05-09T03:57:43;16.70;99.90
23385;DHT22;11865;45.394;10.978;2023-05-09T04:00:11;16.70;99.90
23385;DHT22;11865;45.394;10.978;2023-05-09T04:02:48;16.70;99.90
23385;DHT22;11865;45.394;10.978;2023-05-09T04:05:25;16.70;99.90
23385;DHT22;11865;45.394;10.978;2023-05-09T04:07:53;16.70;99.90
23385;DHT22;11865;45.394;10.978;2023-05-09T04:10:21;16.70;99.90
23385;DHT22;11865;45.394;10.978;2023-05-09T04:12:49;16.80;99.90
23385;DHT22;11865;45.394;10.978;2023-05-09T04:15:17;16.80;99.90
23385;DHT22;11865;45.394;10.978;2023-05-09T04:17:44;16.80;99.90
23385;DHT22;11865;45.394;10.978;2023-05-09T04:20:12;16.80;99.90
23385;DHT22;11865;45.394;10.978;2023-05-09T04:22:41;16.80;99.90
23385;DHT22;11865;45.394;10.978;2023-05-09T04:25:11;16.80;99.90
23385;DHT22;11865;45.394;10.978;2023-05-09T04:27:41;16.90;99.90
23385;DHT22;11865;45.394;10.978;2023-05-09T04:30:10;16.90;99.90
23385;DHT22;11865;45.394;10.978;2023-05-09T04:32:37;16.80;99.90
23385;DHT22;11865;45.394;10.978;2023-05-09T04:35:06;16.70;99.90
23385;DHT22;11865;45.394;10.978;2023-05-09T04:37:39;16.70;99.90
23385;DHT22;11865;45.394;10.978;2023-05-09T04:40:07;16.60;99.90
23385;DHT22;11865;45.394;10.978;2023-05-09T04:42:41;16.60;99.90
23385;DHT22;11865;45.394;10.978;2023-05-09T04:45:10;16.60;99.90
23385;DHT22;11865;45.394;10.978;2023-05-09T04:47:38;16.60;99.90
23385;DHT22;11865;45.394;10.978;2023-05-09T04:50:06;16.50;99.90
23385;DHT22;11865;45.394;10.978;2023-05-09T04:52:34;16.40;99.90
23385;DHT22;11865;45.394;10.978;2023-05-09T04:55:02;16.40;99.90
23385;DHT22;11865;45.394;10.978;2023-05-09T04:57:35;16.50;99.90
23385;DHT22;11865;45.394;10.978;2023-05-09T05:00:03;16.50;99.90
23385;DHT22;11865;45.394;10.978;2023-05-09T05:02:34;16.50;99.90
23385;DHT22;11865;45.394;10.978;2023-05-09T05:05:02;16.50;99.90
23385;DHT22;11865;45.394;10.978;2023-05-09T05:07:40;16.50;99.90
23385;DHT22;11865;45.394;10.978;2023-05-09T05:10:10;16.50;99.90
23385;DHT22;11865;45.394;10.978;2023-05-09T05:12:39;16.60;99.90
23385;DHT22;11865;45.394;10.978;2023-05-09T05:15:10;16.50;99.90
23385;DHT22;11865;45.394;10.978;2023-05-09T05:17:39;16.70;99.90
23385;DHT22;11865;45.394;10.978;2023-05-09T05:20:08;16.70;99.90
23385;DHT22;11865;45.394;10.978;2023-05-09T05:22:41;16.80;99.90
23385;DHT22;11865;45.394;10.978;2023-05-09T05:25:08;16.80;99.90
23385;DHT22;11865;45.394;10.978;2023-05-09T05:27:38;16.80;99.90
23385;DHT22;11865;45.394;10.978;2023-05-09T05:30:07;16.90;99.90
23385;DHT22;11865;45.394;10.978;2023-05-09T05:32:35;16.80;99.90
23385;DHT22;11865;45.394;10.978;2023-05-09T05:35:03;16.90;99.90
23385;DHT22;11865;45.394;10.978;2023-05-09T05:37:34;17.00;99.90
23385;DHT22;11865;45.394;10.978;2023-05-09T05:40:02;17.00;99.90
23385;DHT22;11865;45.394;10.978;2023-05-09T05:42:30;17.10;99.90
23385;DHT22;11865;45.394;10.978;2023-05-09T05:44:58;17.10;99.90
23385;DHT22;11865;45.394;10.978;2023-05-09T05:47:36;17.30;99.90
23385;DHT22;11865;45.394;10.978;2023-05-09T05:50:05;17.20;99.90
23385;DHT22;11865;45.394;10.978;2023-05-09T05:52:39;17.30;99.90
23385;DHT22;11865;45.394;10.978;2023-05-09T05:55:11;17.20;99.90
23385;DHT22;11865;45.394;10.978;2023-05-09T05:57:38;17.40;99.90
23385;DHT22;11865;45.394;10.978;2023-05-09T06:00:08;17.30;99.80
23385;DHT22;11865;45.394;10.978;2023-05-09T06:02:45;17.40;99.90
23385;DHT22;11865;45.394;10.978;2023-05-09T06:05:21;17.40;99.80
23385;DHT22;11865;45.394;10.978;2023-05-09T06:07:50;17.50;99.70
23385;DHT22;11865;45.394;10.978;2023-05-09T06:10:17;17.60;99.10
23385;DHT22;11865;45.394;10.978;2023-05-09T06:12:45;17.50;98.90
23385;DHT22;11865;45.394;10.978;2023-05-09T06:15:12;17.60;98.30
23385;DHT22;11865;45.394;10.978;2023-05-09T06:17:44;17.60;98.30
23385;DHT22;11865;45.394;10.978;2023-05-09T06:20:11;17.70;98.70
23385;DHT22;11865;45.394;10.978;2023-05-09T06:22:39;17.60;98.30
23385;DHT22;11865;45.394;10.978;2023-05-09T06:25:06;17.80;98.50
23385;DHT22;11865;45.394;10.978;2023-05-09T06:27:37;17.70;98.20
23385;DHT22;11865;45.394;10.978;2023-05-09T06:30:05;17.80;98.30
23385;DHT22;11865;45.394;10.978;2023-05-09T06:32:52;17.80;97.90
23385;DHT22;11865;45.394;10.978;2023-05-09T06:35:20;17.70;97.40
23385;DHT22;11865;45.394;10.978;2023-05-09T06:37:48;17.60;98.00
23385;DHT22;11865;45.394;10.978;2023-05-09T06:40:16;17.90;98.10
23385;DHT22;11865;45.394;10.978;2023-05-09T06:42:44;17.80;98.10
23385;DHT22;11865;45.394;10.978;2023-05-09T06:45:11;17.90;97.80
23385;DHT22;11865;45.394;10.978;2023-05-09T06:47:39;18.10;97.80
23385;DHT22;11865;45.394;10.978;2023-05-09T06:50:07;18.10;97.30
23385;DHT22;11865;45.394;10.978;2023-05-09T06:52:35;17.90;97.30
23385;DHT22;11865;45.394;10.978;2023-05-09T06:55:03;18.00;97.00
23385;DHT22;11865;45.394;10.978;2023-05-09T06:57:30;18.10;96.80
23385;DHT22;11865;45.394;10.978;2023-05-09T06:59:58;18.30;96.40
23385;DHT22;11865;45.394;10.978;2023-05-09T07:02:25;18.90;95.30
23385;DHT22;11865;45.394;10.978;2023-05-09T07:04:53;19.10;95.50
23385;DHT22;11865;45.394;10.978;2023-05-09T07:07:20;18.90;95.00
23385;DHT22;11865;45.394;10.978;2023-05-09T07:09:48;18.90;95.10
23385;DHT22;11865;45.394;10.978;2023-05-09T07:12:21;19.20;95.70
23385;DHT22;11865;45.394;10.978;2023-05-09T07:14:48;19.30;94.70
23385;DHT22;11865;45.394;10.978;2023-05-09T07:17:16;19.40;94.00
23385;DHT22;11865;45.394;10.978;2023-05-09T07:19:50;19.60;93.90
23385;DHT22;11865;45.394;10.978;2023-05-09T07:22:18;19.40;94.40
23385;DHT22;11865;45.394;10.978;2023-05-09T07:24:45;19.20;94.40
23385;DHT22;11865;45.394;10.978;2023-05-09T07:27:13;19.10;94.90
23385;DHT22;11865;45.394;10.978;2023-05-09T07:29:40;19.20;95.00
23385;DHT22;11865;45.394;10.978;2023-05-09T07:32:08;19.00;94.40
23385;DHT22;11865;45.394;10.978;2023-05-09T07:34:35;19.00;95.10
23385;DHT22;11865;45.394;10.978;2023-05-09T07:37:03;19.30;95.20
23385;DHT22;11865;45.394;10.978;2023-05-09T07:39:30;19.30;93.60
23385;DHT22;11865;45.394;10.978;2023-05-09T07:41:58;19.20;92.80
23385;DHT22;11865;45.394;10.978;2023-05-09T07:44:25;19.80;93.40
23385;DHT22;11865;45.394;10.978;2023-05-09T07:46:52;20.20;92.30
23385;DHT22;11865;45.394;10.978;2023-05-09T07:49:21;20.30;92.10
23385;DHT22;11865;45.394;10.978;2023-05-09T07:51:49;19.90;93.00
23385;DHT22;11865;45.394;10.978;2023-05-09T07:54:16;20.50;93.70
23385;DHT22;11865;45.394;10.978;2023-05-09T07:56:44;20.40;91.90
23385;DHT22;11865;45.394;10.978;2023-05-09T07:59:11;21.40;91.90
23385;DHT22;11865;45.394;10.978;2023-05-09T08:01:38;21.70;90.70
23385;DHT22;11865;45.394;10.978;2023-05-09T08:04:06;22.20;89.50
23385;DHT22;11865;45.394;10.978;2023-05-09T08:06:35;22.30;85.50
23385;DHT22;11865;45.394;10.978;2023-05-09T08:09:03;21.70;87.80
23385;DHT22;11865;45.394;10.978;2023-05-09T08:11:34;21.30;89.30
23385;DHT22;11865;45.394;10.978;2023-05-09T08:14:02;21.40;90.70
23385;DHT22;11865;45.394;10.978;2023-05-09T08:16:29;21.30;91.00
23385;DHT22;11865;45.394;10.978;2023-05-09T08:18:57;20.70;91.00
23385;DHT22;11865;45.394;10.978;2023-05-09T08:21:24;21.20;91.30
23385;DHT22;11865;45.394;10.978;2023-05-09T08:23:52;21.30;90.90
23385;DHT22;11865;45.394;10.978;2023-05-09T08:26:21;21.30;91.70
23385;DHT22;11865;45.394;10.978;2023-05-09T08:28:49;20.80;91.20
23385;DHT22;11865;45.394;10.978;2023-05-09T08:31:17;20.90;91.30
23385;DHT22;11865;45.394;10.978;2023-05-09T08:33:44;20.90;91.60
23385;DHT22;11865;45.394;10.978;2023-05-09T08:36:12;21.10;90.70
23385;DHT22;11865;45.394;10.978;2023-05-09T08:38:39;21.20;91.40
23385;DHT22;11865;45.394;10.978;2023-05-09T08:41:07;21.10;91.80
23385;DHT22;11865;45.394;10.978;2023-05-09T08:43:35;21.10;91.50
23385;DHT22;11865;45.394;10.978;2023-05-09T08:46:06;21.20;91.00
23385;DHT22;11865;45.394;10.978;2023-05-09T08:48:36;22.00;91.10
23385;DHT22;11865;45.394;10.978;2023-05-09T08:51:05;21.80;90.50
23385;DHT22;11865;45.394;10.978;2023-05-09T08:53:33;21.70;90.70
23385;DHT22;11865;45.394;10.978;2023-05-09T08:56:02;21.50;89.70
23385;DHT22;11865;45.394;10.978;2023-05-09T08:58:30;21.40;90.30
23385;DHT22;11865;45.394;10.978;2023-05-09T09:00:58;21.60;91.70
23385;DHT22;11865;45.394;10.978;2023-05-09T09:03:27;21.10;91.30
23385;DHT22;11865;45.394;10.978;2023-05-09T09:05:56;21.50;92.00
23385;DHT22;11865;45.394;10.978;2023-05-09T09:08:25;21.10;92.20
23385;DHT22;11865;45.394;10.978;2023-05-09T09:10:53;21.80;91.30
23385;DHT22;11865;45.394;10.978;2023-05-09T09:13:21;21.40;91.40
23385;DHT22;11865;45.394;10.978;2023-05-09T09:15:52;21.50;91.40
23385;DHT22;11865;45.394;10.978;2023-05-09T09:18:23;21.40;91.60
23385;DHT22;11865;45.394;10.978;2023-05-09T09:20:57;21.80;91.90
23385;DHT22;11865;45.394;10.978;2023-05-09T09:23:25;21.70;92.50
23385;DHT22;11865;45.394;10.978;2023-05-09T09:25:59;21.50;92.40
23385;DHT22;11865;45.394;10.978;2023-05-09T09:28:27;21.60;92.70
23385;DHT22;11865;45.394;10.978;2023-05-09T09:30:54;21.70;93.10
23385;DHT22;11865;45.394;10.978;2023-05-09T09:33:23;22.00;93.30
23385;DHT22;11865;45.394;10.978;2023-05-09T09:35:52;21.40;92.80
23385;DHT22;11865;45.394;10.978;2023-05-09T09:38:23;21.60;92.70
23385;DHT22;11865;45.394;10.978;2023-05-09T09:43:18;22.00;92.00
23385;DHT22;11865;45.394;10.978;2023-05-09T09:45:49;22.10;91.20
23385;DHT22;11865;45.394;10.978;2023-05-09T09:48:17;22.20;92.00
23385;DHT22;11865;45.394;10.978;2023-05-09T09:50:46;22.30;92.50
23385;DHT22;11865;45.394;10.978;2023-05-09T09:53:14;22.10;92.70
23385;DHT22;11865;45.394;10.978;2023-05-09T09:55:51;22.00;92.00
23385;DHT22;11865;45.394;10.978;2023-05-09T09:58:19;21.80;91.20
23385;DHT22;11865;45.394;10.978;2023-05-09T10:01:11;21.60;91.80
23385;DHT22;11865;45.394;10.978;2023-05-09T10:03:46;21.60;90.90
23385;DHT22;11865;45.394;10.978;2023-05-09T10:06:15;21.80;92.20
23385;DHT22;11865;45.394;10.978;2023-05-09T10:08:44;21.80;91.20
23385;DHT22;11865;45.394;10.978;2023-05-09T10:11:15;21.60;91.00
23385;DHT22;11865;45.394;10.978;2023-05-09T10:13:43;21.70;91.20
23385;DHT22;11865;45.394;10.978;2023-05-09T10:16:11;21.50;90.30
23385;DHT22;11865;45.394;10.978;2023-05-09T10:18:41;22.00;90.80
23385;DHT22;11865;45.394;10.978;2023-05-09T10:21:11;21.60;89.00
23385;DHT22;11865;45.394;10.978;2023-05-09T10:23:44;21.90;89.50
23385;DHT22;11865;45.394;10.978;2023-05-09T10:26:19;21.60;88.90
23385;DHT22;11865;45.394;10.978;2023-05-09T10:28:48;21.70;90.00
23385;DHT22;11865;45.394;10.978;2023-05-09T10:31:31;21.90;90.70
23385;DHT22;11865;45.394;10.978;2023-05-09T10:34:08;22.00;90.10
23385;DHT22;11865;45.394;10.978;2023-05-09T10:36:36;22.00;88.30
23385;DHT22;11865;45.394;10.978;2023-05-09T10:39:04;22.10;89.00
23385;DHT22;11865;45.394;10.978;2023-05-09T10:41:32;22.50;88.70
23385;DHT22;11865;45.394;10.978;2023-05-09T10:43:59;22.60;89.10
23385;DHT22;11865;45.394;10.978;2023-05-09T10:46:27;22.40;87.90
23385;DHT22;11865;45.394;10.978;2023-05-09T10:48:55;22.40;90.10
23385;DHT22;11865;45.394;10.978;2023-05-09T10:51:23;22.00;88.60
23385;DHT22;11865;45.394;10.978;2023-05-09T10:53:51;22.20;88.40
23385;DHT22;11865;45.394;10.978;2023-05-09T10:56:30;22.20;89.50
23385;DHT22;11865;45.394;10.978;2023-05-09T10:58:59;22.60;87.90
23385;DHT22;11865;45.394;10.978;2023-05-09T11:01:37;22.40;88.10
23385;DHT22;11865;45.394;10.978;2023-05-09T11:04:13;22.30;88.60
23385;DHT22;11865;45.394;10.978;2023-05-09T11:06:49;22.20;89.90
23385;DHT22;11865;45.394;10.978;2023-05-09T11:09:39;21.90;89.60
23385;DHT22;11865;45.394;10.978;2023-05-09T11:12:10;22.10;90.00
23385;DHT22;11865;45.394;10.978;2023-05-09T11:14:43;21.90;90.20
23385;DHT22;11865;45.394;10.978;2023-05-09T11:22:21;22.50;90.30
23385;DHT22;11865;45.394;10.978;2023-05-09T11:24:51;22.30;90.60
23385;DHT22;11865;45.394;10.978;2023-05-09T11:29:53;22.10;89.90
23385;DHT22;11865;45.394;10.978;2023-05-09T11:32:27;22.00;89.10
23385;DHT22;11865;45.394;10.978;2023-05-09T11:40:16;22.60;90.30
23385;DHT22;11865;45.394;10.978;2023-05-09T11:42:50;22.30;89.90
23385;DHT22;11865;45.394;10.978;2023-05-09T11:45:28;21.90;90.30
23385;DHT22;11865;45.394;10.978;2023-05-09T11:47:56;21.80;90.20
23385;DHT22;11865;45.394;10.978;2023-05-09T11:50:24;21.90;91.20
23385;DHT22;11865;45.394;10.978;2023-05-09T11:52:52;21.50;91.30
23385;DHT22;11865;45.394;10.978;2023-05-09T11:55:20;21.70;91.00
23385;DHT22;11865;45.394;10.978;2023-05-09T11:57:51;22.00;90.90
23385;DHT22;11865;45.394;10.978;2023-05-09T12:00:20;22.30;91.20
23385;DHT22;11865;45.394;10.978;2023-05-09T12:02:48;22.00;89.20
23385;DHT22;11865;45.394;10.978;2023-05-09T12:05:19;22.50;90.60
23385;DHT22;11865;45.394;10.978;2023-05-09T12:07:47;22.40;89.80
23385;DHT22;11865;45.394;10.978;2023-05-09T12:10:18;22.30;91.00
23385;DHT22;11865;45.394;10.978;2023-05-09T12:12:47;22.50;90.30
23385;DHT22;11865;45.394;10.978;2023-05-09T12:15:15;22.60;91.00
23385;DHT22;11865;45.394;10.978;2023-05-09T12:17:44;22.30;90.10
23385;DHT22;11865;45.394;10.978;2023-05-09T12:20:13;22.10;90.10
23385;DHT22;11865;45.394;10.978;2023-05-09T12:22:42;22.10;90.40
23385;DHT22;11865;45.394;10.978;2023-05-09T12:25:10;22.30;89.40
23385;DHT22;11865;45.394;10.978;2023-05-09T12:27:39;22.10;89.70
23385;DHT22;11865;45.394;10.978;2023-05-09T12:30:07;22.50;90.40
23385;DHT22;11865;45.394;10.978;2023-05-09T12:32:38;22.20;89.60
23385;DHT22;11865;45.394;10.978;2023-05-09T12:35:08;22.10;89.60
23385;DHT22;11865;45.394;10.978;2023-05-09T12:37:36;21.80;90.50
23385;DHT22;11865;45.394;10.978;2023-05-09T12:40:09;21.80;90.90
23385;DHT22;11865;45.394;10.978;2023-05-09T12:42:44;21.90;91.00
23385;DHT22;11865;45.394;10.978;2023-05-09T12:45:13;21.90;90.50
23385;DHT22;11865;45.394;10.978;2023-05-09T12:47:41;21.90;90.80
23385;DHT22;11865;45.394;10.978;2023-05-09T12:50:09;22.00;90.30
23385;DHT22;11865;45.394;10.978;2023-05-09T12:52:40;22.00;91.10
23385;DHT22;11865;45.394;10.978;2023-05-09T12:55:28;21.90;91.20
23385;DHT22;11865;45.394;10.978;2023-05-09T12:58:02;21.80;90.10
23385;DHT22;11865;45.394;10.978;2023-05-09T13:00:44;22.30;90.00
23385;DHT22;11865;45.394;10.978;2023-05-09T13:03:22;22.10;90.10
23385;DHT22;11865;45.394;10.978;2023-05-09T13:06:01;21.80;89.80
23385;DHT22;11865;45.394;10.978;2023-05-09T13:08:28;22.10;88.50
23385;DHT22;11865;45.394;10.978;2023-05-09T13:10:57;22.40;90.40
23385;DHT22;11865;45.394;10.978;2023-05-09T13:13:41;22.50;88.40
23385;DHT22;11865;45.394;10.978;2023-05-09T13:16:09;22.30;89.40
23385;DHT22;11865;45.394;10.978;2023-05-09T13:18:38;22.70;88.70
23385;DHT22;11865;45.394;10.978;2023-05-09T13:21:05;22.20;87.70
23385;DHT22;11865;45.394;10.978;2023-05-09T13:23:33;22.10;88.10
23385;DHT22;11865;45.394;10.978;2023-05-09T13:26:00;22.30;88.50
23385;DHT22;11865;45.394;10.978;2023-05-09T13:28:27;22.40;87.60
23385;DHT22;11865;45.394;10.978;2023-05-09T13:30:55;22.80;88.10
23385;DHT22;11865;45.394;10.978;2023-05-09T13:33:22;22.70;87.00
23385;DHT22;11865;45.394;10.978;2023-05-09T13:35:53;22.70;86.10
23385;DHT22;11865;45.394;10.978;2023-05-09T13:38:20;22.70;87.60
23385;DHT22;11865;45.394;10.978;2023-05-09T13:40:47;22.70;86.40
23385;DHT22;11865;45.394;10.978;2023-05-09T13:43:15;22.80;86.20
23385;DHT22;11865;45.394;10.978;2023-05-09T13:45:43;22.80;87.40
23385;DHT22;11865;45.394;10.978;2023-05-09T13:48:10;22.50;87.20
23385;DHT22;11865;45.394;10.978;2023-05-09T13:50:38;22.50;87.90
23385;DHT22;11865;45.394;10.978;2023-05-09T13:53:05;22.60;87.70
23385;DHT22;11865;45.394;10.978;2023-05-09T13:55:32;22.70;87.30
23385;DHT22;11865;45.394;10.978;2023-05-09T13:58:01;22.90;87.40
23385;DHT22;11865;45.394;10.978;2023-05-09T14:00:28;22.80;86.70
23385;DHT22;11865;45.394;10.978;2023-05-09T14:02:56;22.40;87.70
23385;DHT22;11865;45.394;10.978;2023-05-09T14:05:23;22.30;88.50
23385;DHT22;11865;45.394;10.978;2023-05-09T14:07:51;22.20;87.90
23385;DHT22;11865;45.394;10.978;2023-05-09T14:10:18;22.20;87.50
23385;DHT22;11865;45.394;10.978;2023-05-09T14:12:46;22.10;88.00
23385;DHT22;11865;45.394;10.978;2023-05-09T14:15:14;22.10;90.00
23385;DHT22;11865;45.394;10.978;2023-05-09T14:17:42;22.30;90.50
23385;DHT22;11865;45.394;10.978;2023-05-09T14:20:10;22.00;90.40
23385;DHT22;11865;45.394;10.978;2023-05-09T14:22:38;22.00;90.50
23385;DHT22;11865;45.394;10.978;2023-05-09T14:25:06;21.90;91.00
23385;DHT22;11865;45.394;10.978;2023-05-09T14:27:33;21.80;91.10
23385;DHT22;11865;45.394;10.978;2023-05-09T14:30:03;22.00;91.40
23385;DHT22;11865;45.394;10.978;2023-05-09T14:32:31;22.20;90.50
23385;DHT22;11865;45.394;10.978;2023-05-09T14:34:59;22.20;90.60
23385;DHT22;11865;45.394;10.978;2023-05-09T14:37:26;22.20;90.10
23385;DHT22;11865;45.394;10.978;2023-05-09T14:39:55;22.40;90.00
23385;DHT22;11865;45.394;10.978;2023-05-09T14:42:23;22.20;90.30
23385;DHT22;11865;45.394;10.978;2023-05-09T14:44:50;22.40;90.30
23385;DHT22;11865;45.394;10.978;2023-05-09T14:47:18;22.50;90.00
23385;DHT22;11865;45.394;10.978;2023-05-09T14:49:45;22.70;90.40
23385;DHT22;11865;45.394;10.978;2023-05-09T14:52:12;22.40;90.30
23385;DHT22;11865;45.394;10.978;2023-05-09T14:54:40;22.10;90.80
23385;DHT22;11865;45.394;10.978;2023-05-09T14:57:08;21.80;90.70
23385;DHT22;11865;45.394;10.978;2023-05-09T14:59:35;21.90;90.00
23385;DHT22;11865;45.394;10.978;2023-05-09T15:02:03;22.00;90.70
23385;DHT22;11865;45.394;10.978;2023-05-09T15:04:31;21.80;90.80
23385;DHT22;11865;45.394;10.978;2023-05-09T15:06:58;21.90;90.90
23385;DHT22;11865;45.394;10.978;2023-05-09T15:09:26;21.70;90.50
23385;DHT22;11865;45.394;10.978;2023-05-09T15:11:54;21.70;90.80
23385;DHT22;11865;45.394;10.978;2023-05-09T15:14:21;21.90;90.90
23385;DHT22;11865;45.394;10.978;2023-05-09T15:16:49;21.80;90.50
23385;DHT22;11865;45.394;10.978;2023-05-09T15:19:20;21.90;90.40
23385;DHT22;11865;45.394;10.978;2023-05-09T15:21:48;22.00;90.50
23385;DHT22;11865;45.394;10.978;2023-05-09T15:24:16;22.00;90.30
23385;DHT22;11865;45.394;10.978;2023-05-09T15:26:43;22.20;90.80
23385;DHT22;11865;45.394;10.978;2023-05-09T15:29:10;22.10;89.60
23385;DHT22;11865;45.394;10.978;2023-05-09T15:31:38;22.20;90.00
23385;DHT22;11865;45.394;10.978;2023-05-09T15:34:05;22.10;89.00
23385;DHT22;11865;45.394;10.978;2023-05-09T15:36:32;22.00;89.80
23385;DHT22;11865;45.394;10.978;2023-05-09T15:39:00;22.40;89.20
23385;DHT22;11865;45.394;10.978;2023-05-09T15:41:27;22.10;88.60
23385;DHT22;11865;45.394;10.978;2023-05-09T15:43:55;22.30;88.00
23385;DHT22;11865;45.394;10.978;2023-05-09T15:46:23;22.30;87.70
23385;DHT22;11865;45.394;10.978;2023-05-09T15:48:51;22.50;86.60
23385;DHT22;11865;45.394;10.978;2023-05-09T15:51:22;22.60;86.00
23385;DHT22;11865;45.394;10.978;2023-05-09T15:53:49;22.70;87.10
23385;DHT22;11865;45.394;10.978;2023-05-09T15:56:17;22.40;87.40
23385;DHT22;11865;45.394;10.978;2023-05-09T15:58:44;22.30;87.80